Time;durP1;ratioP1;P1;durP2;ratioP2;P2;SDS_P1;SDS_P2;PMS_P1;PMS_P2;Temp;Humidity;BMP_temperature;BMP_pressure;BME280_temperature;BME280_humidity;BME280_pressure;Samples;Min_cycle;Max_cycle;Signal;HPM_P1;HPM_P2
2022/04/03 00:04:33;;;;;;;;;9.50;9.50;;;;;;;;2;261081243;261081243;-81
2022/04/03 00:13:34;;;;;;;;;6.50;6.50;;;;;;;;2;261077224;261077224;-82
2022/04/03 00:21:49;;;;;;;;;12.00;10.50;;;;;;;;2;261076448;261076448;-84
2022/04/03 00:30:50;;;;;;;;;21.50;10.50;;;;;;;;2;261078184;261078184;-84
2022/04/03 00:39:05;;;;;;;;;9.00;9.00;;;;;;;;2;261077076;261077076;-84
2022/04/03 00:48:07;;;;;;;;;10.50;10.50;;;;;;;;2;261079663;261079663;-83
2022/04/03 00:56:22;;;;;;;;;13.00;13.00;;;;;;;;2;260937483;260937483;-84
2022/04/03 01:05:23;;;;;;;;;11.50;11.50;;;;;;;;2;261079566;261079566;-84
2022/04/03 01:13:49;;;;;;;;;10.50;10.50;;;;;;;;2;261079077;261079077;-84
2022/04/03 01:22:49;;;;;;;;;8.50;8.50;;;;;;;;2;261077628;261077628;-84
2022/04/03 01:31:04;;;;;;;;;9.00;9.00;;;;;;;;2;261076141;261076141;-84
2022/04/03 01:40:05;;;;;;;;;25.50;13.50;;;;;;;;2;260969945;260969945;-84
2022/04/03 01:48:19;;;;;;;;;5.50;5.50;;;;;;;;2;259534309;259534309;-84
2022/04/03 01:57:20;;;;;;;;;13.00;13.00;;;;;;;;2;261074225;261074225;-84
2022/04/03 02:05:35;;;;;;;;;11.00;11.00;;;;;;;;2;260998593;260998593;-85
2022/04/03 02:14:36;;;;;;;;;8.50;6.50;;;;;;;;2;261079817;261079817;-83
2022/04/03 02:22:51;;;;;;;;;16.50;7.50;;;;;;;;2;261078344;261078344;-83
2022/04/03 02:31:52;;;;;;;;;11.00;7.00;;;;;;;;2;261080826;261080826;-84
2022/04/03 02:40:09;;;;;;;;;6.50;6.50;;;;;;;;2;261074942;261074942;-83
2022/04/03 02:49:09;;;;;;;;;9.50;9.50;;;;;;;;2;261074240;261074240;-83
2022/04/03 02:57:25;;;;;;;;;10.00;10.00;;;;;;;;2;260785063;260785063;-83
2022/04/03 03:06:25;;;;;;;;;5.00;5.00;;;;;;;;2;261078572;261078572;-83
2022/04/03 03:14:40;;;;;;;;;9.50;9.50;;;;;;;;2;261078299;261078299;-83
2022/04/03 03:23:41;;;;;;;;;5.00;5.00;;;;;;;;2;261080422;261080422;-84
2022/04/03 03:31:56;;;;;;;;;6.50;2.50;;;;;;;;2;261076710;261076710;-84
2022/04/03 03:40:57;;;;;;;;;9.00;9.00;;;;;;;;2;261076891;261076891;-84
2022/04/03 03:49:14;;;;;;;;;7.00;7.00;;;;;;;;2;261079852;261079852;-83
2022/04/03 03:58:14;;;;;;;;;27.50;10.50;;;;;;;;2;261077188;261077188;-83
2022/04/03 04:06:30;;;;;;;;;7.00;7.00;;;;;;;;2;261074312;261074312;-83
2022/04/03 04:15:30;;;;;;;;;5.50;5.50;;;;;;;;2;261073226;261073226;-84
2022/04/03 04:23:46;;;;;;;;;13.50;13.50;;;;;;;;2;261075161;261075161;-84
2022/04/03 04:32:46;;;;;;;;;8.00;8.00;;;;;;;;2;261077379;261077379;-83
2022/04/03 04:41:02;;;;;;;;;24.50;8.00;;;;;;;;2;261075105;261075105;-83
2022/04/03 04:50:06;;;;;;;;;16.50;12.50;;;;;;;;2;261075439;261075439;-83
2022/04/03 04:58:21;;;;;;;;;7.50;7.50;;;;;;;;2;261076391;261076391;-84
2022/04/03 05:07:22;;;;;;;;;10.50;10.50;;;;;;;;2;261074943;261074943;-84
2022/04/03 05:15:38;;;;;;;;;5.00;5.00;;;;;;;;2;261076937;261076937;-83
2022/04/03 05:24:38;;;;;;;;;5.50;5.50;;;;;;;;2;261074290;261074290;-83
2022/04/03 05:32:53;;;;;;;;;5.50;5.50;;;;;;;;2;261075330;261075330;-83
2022/04/03 05:41:55;;;;;;;;;10.00;10.00;;;;;;;;2;261078951;261078951;-83
2022/04/03 05:50:11;;;;;;;;;3.00;3.00;;;;;;;;2;261077668;261077668;-83
2022/04/03 05:59:12;;;;;;;;;18.50;7.50;;;;;;;;2;261075904;261075904;-84
2022/04/03 06:07:27;;;;;;;;;32.00;8.00;;;;;;;;2;261076603;261076603;-84
2022/04/03 06:16:28;;;;;;;;;8.50;8.50;;;;;;;;2;261078323;261078323;-84
2022/04/03 06:24:43;;;;;;;;;7.50;7.50;;;;;;;;2;261077260;261077260;-84
2022/04/03 06:33:43;;;;;;;;;6.50;6.50;;;;;;;;2;261078525;261078525;-84
2022/04/03 06:41:59;;;;;;;;;9.50;9.50;;;;;;;;2;261077537;261077537;-84
2022/04/03 06:51:00;;;;;;;;;5.50;5.50;;;;;;;;2;261077823;261077823;-84
2022/04/03 06:59:16;;;;;;;;;16.00;12.00;;;;;;;;2;261079708;261079708;-84
2022/04/03 07:08:16;;;;;;;;;8.50;8.50;;;;;;;;2;261078271;261078271;-81
2022/04/03 07:16:31;;;;;;;;;7.00;7.00;;;;;;;;2;261078577;261078577;-81
2022/04/03 07:25:32;;;;;;;;;12.50;12.50;;;;;;;;2;261080921;261080921;-80
2022/04/03 07:33:47;;;;;;;;;18.50;6.50;;;;;;;;2;261080004;261080004;-81
2022/04/03 07:42:49;;;;;;;;;11.00;5.50;;;;;;;;2;261077438;261077438;-81
2022/04/03 07:51:05;;;;;;;;;6.00;6.00;;;;;;;;2;261079283;261079283;-82
2022/04/03 08:00:06;;;;;;;;;5.00;5.00;;;;;;;;2;261076533;261076533;-83
2022/04/03 08:08:22;;;;;;;;;12.50;9.00;;;;;;;;2;261077247;261077247;-82
2022/04/03 08:17:22;;;;;;;;;7.00;7.00;;;;;;;;2;260996670;260996670;-82
2022/04/03 08:25:39;;;;;;;;;6.00;6.00;;;;;;;;2;261078411;261078411;-82
2022/04/03 08:34:40;;;;;;;;;6.50;6.50;;;;;;;;2;261081295;261081295;-82
2022/04/03 08:42:56;;;;;;;;;11.50;4.50;;;;;;;;2;261074106;261074106;-83
2022/04/03 08:51:57;;;;;;;;;6.50;6.50;;;;;;;;2;261077970;261077970;-83
2022/04/03 09:00:14;;;;;;;;;4.00;4.00;;;;;;;;2;260501215;260501215;-83
2022/04/03 09:09:20;;;;;;;;;12.00;4.00;;;;;;;;2;261078719;261078719;-83
2022/04/03 09:17:44;;;;;;;;;10.50;10.50;;;;;;;;2;261079043;261079043;-83
2022/04/03 09:30:07;;;;;;;;;5.00;5.00;;;;;;;;2;261076172;261076172;-83
2022/04/03 09:38:23;;;;;;;;;2.50;2.50;;;;;;;;2;261083983;261083983;-81
2022/04/03 09:47:30;;;;;;;;;0.50;0.50;;;;;;;;2;261080307;261080307;-84
2022/04/03 09:49:59;;;;;;;;;3.00;3.00;;;;;;;;2;147713868;147713868;-84
2022/04/03 09:52:44;;;;;;;;;2.00;2.00;;;;;;;;5073539;28;45254;-84
2022/04/03 10:01:45;;;;;;;;;;;;;;;;;;2;279085168;279085168;-84
2022/04/03 10:10:00;;;;;;;;;1.00;1.00;;;;;;;;2;234068413;234068413;-82
2022/04/03 10:19:01;;;;;;;;;1.50;1.50;;;;;;;;2;279083448;279083448;-83
2022/04/03 10:27:23;;;;;;;;;0.50;0.50;;;;;;;;2;234069030;234069030;-82
2022/04/03 10:36:25;;;;;;;;;1.50;1.50;;;;;;;;2;279083697;279083697;-84
2022/04/03 10:44:40;;;;;;;;;1.00;1.00;;;;;;;;2;234071988;234071988;-83
2022/04/03 10:53:42;;;;;;;;;1.00;1.00;;;;;;;;2;279081021;279081021;-83
2022/04/03 11:02:12;;;;;;;;;4.00;4.00;;;;;;;;2;234071154;234071154;-83
2022/04/03 11:11:13;;;;;;;;;1.50;1.50;;;;;;;;2;279086224;279086224;-83
2022/04/03 11:19:33;;;;;;;;;4.00;4.00;;;;;;;;2;234069820;234069820;-84
2022/04/03 11:28:37;;;;;;;;;3.50;3.50;;;;;;;;2;279085688;279085688;-83
2022/04/03 11:36:55;;;;;;;;;0.50;0.50;;;;;;;;2;234070669;234070669;-82
2022/04/03 11:45:57;;;;;;;;;3.00;3.00;;;;;;;;2;279083805;279083805;-83
2022/04/03 11:54:17;;;;;;;;;3.50;3.50;;;;;;;;2;234071038;234071038;-83
2022/04/03 12:03:36;;;;;;;;;4.00;4.00;;;;;;;;2;279084621;279084621;-83
2022/04/03 12:11:53;;;;;;;;;0.50;0.50;;;;;;;;2;234070369;234070369;-82
2022/04/03 12:20:53;;;;;;;;;2.50;2.50;;;;;;;;2;279082594;279082594;-83
2022/04/03 12:29:09;;;;;;;;;3.00;3.00;;;;;;;;2;234068623;234068623;-83
2022/04/03 12:38:11;;;;;;;;;7.00;7.00;;;;;;;;2;279092564;279092564;-83
2022/04/03 12:46:36;;;;;;;;;3.50;3.50;;;;;;;;2;234071388;234071388;-79
2022/04/03 12:55:56;;;;;;;;;9.00;4.50;;;;;;;;2;279089086;279089086;-84
2022/04/03 13:04:27;;;;;;;;;3.50;3.50;;;;;;;;2;234075125;234075125;-83
2022/04/03 13:13:29;;;;;;;;;3.50;3.50;;;;;;;;2;279083841;279083841;-84
2022/04/03 13:21:44;;;;;;;;;3.00;3.00;;;;;;;;2;234071712;234071712;-84
2022/04/03 13:30:48;;;;;;;;;2.50;2.50;;;;;;;;2;279081168;279081168;-84
2022/04/03 13:39:05;;;;;;;;;15.00;4.00;;;;;;;;2;234068481;234068481;-83
2022/04/03 13:48:06;;;;;;;;;3.00;3.00;;;;;;;;2;279083688;279083688;-83
2022/04/03 13:56:23;;;;;;;;;3.50;3.50;;;;;;;;2;234075439;234075439;-83
2022/04/03 14:05:23;;;;;;;;;5.00;5.00;;;;;;;;2;279087957;279087957;-83
2022/04/03 14:13:39;;;;;;;;;2.50;2.50;;;;;;;;2;234071638;234071638;-84
2022/04/03 14:22:39;;;;;;;;;1.00;1.00;;;;;;;;2;279089474;279089474;-84
2022/04/03 14:30:55;;;;;;;;;4.00;4.00;;;;;;;;2;234077368;234077368;-86
2022/04/03 14:39:55;;;;;;;;;6.50;6.50;;;;;;;;2;279085680;279085680;-85
2022/04/03 14:48:11;;;;;;;;;18.50;6.50;;;;;;;;2;234070387;234070387;-85
2022/04/03 14:57:11;;;;;;;;;7.00;7.00;;;;;;;;2;279080609;279080609;-85
2022/04/03 15:05:27;;;;;;;;;6.50;6.50;;;;;;;;2;234074142;234074142;-86
2022/04/03 15:14:27;;;;;;;;;5.50;5.50;;;;;;;;2;279084385;279084385;-84
2022/04/03 15:22:44;;;;;;;;;8.00;8.00;;;;;;;;2;234073178;234073178;-86
2022/04/03 15:31:51;;;;;;;;;5.50;5.50;;;;;;;;2;279085599;279085599;-84
2022/04/03 15:40:07;;;;;;;;;11.00;6.00;;;;;;;;2;234070888;234070888;-85
2022/04/03 15:49:07;;;;;;;;;6.50;6.50;;;;;;;;2;279083508;279083508;-86
2022/04/03 15:57:23;;;;;;;;;8.00;8.00;;;;;;;;2;234067434;234067434;-88
2022/04/03 16:06:23;;;;;;;;;7.00;7.00;;;;;;;;2;279084055;279084055;-86
2022/04/03 16:14:39;;;;;;;;;6.00;6.00;;;;;;;;2;234073752;234073752;-86
2022/04/03 16:23:42;;;;;;;;;4.00;4.00;;;;;;;;2;279085803;279085803;-85
2022/04/03 16:31:58;;;;;;;;;8.00;8.00;;;;;;;;2;234074688;234074688;-86
2022/04/03 16:41:01;;;;;;;;;8.00;8.00;;;;;;;;2;279082403;279082403;-86
2022/04/03 16:49:17;;;;;;;;;10.50;10.50;;;;;;;;2;234076706;234076706;-86
2022/04/03 16:58:17;;;;;;;;;15.00;6.00;;;;;;;;2;279083660;279083660;-87
2022/04/03 17:06:34;;;;;;;;;8.50;8.50;;;;;;;;2;234076295;234076295;-87
2022/04/03 17:15:34;;;;;;;;;8.00;8.00;;;;;;;;2;279087266;279087266;-86
2022/04/03 17:23:51;;;;;;;;;19.50;16.00;;;;;;;;2;234074003;234074003;-87
2022/04/03 17:32:51;;;;;;;;;13.50;13.50;;;;;;;;2;279085075;279085075;-85
2022/04/03 17:41:07;;;;;;;;;9.00;9.00;;;;;;;;2;234070810;234070810;-86
2022/04/03 17:50:08;;;;;;;;;27.50;15.50;;;;;;;;2;279080384;279080384;-87
2022/04/03 17:58:23;;;;;;;;;18.50;18.50;;;;;;;;2;234075828;234075828;-86
2022/04/03 18:07:24;;;;;;;;;14.50;14.50;;;;;;;;2;279085516;279085516;-87
2022/04/03 18:15:40;;;;;;;;;8.00;8.00;;;;;;;;2;234069012;234069012;-89
2022/04/03 18:24:42;;;;;;;;;30.00;21.50;;;;;;;;2;279087013;279087013;-87
2022/04/03 18:32:59;;;;;;;;;21.50;16.00;;;;;;;;2;234076095;234076095;-87
2022/04/03 18:42:00;;;;;;;;;10.00;10.00;;;;;;;;2;279090234;279090234;-88
2022/04/03 18:50:16;;;;;;;;;14.00;14.00;;;;;;;;2;234069563;234069563;-88
2022/04/03 18:59:18;;;;;;;;;14.50;10.50;;;;;;;;2;279085388;279085388;-88
2022/04/03 19:07:33;;;;;;;;;12.00;12.00;;;;;;;;2;234070680;234070680;-88
2022/04/03 19:16:34;;;;;;;;;16.50;16.50;;;;;;;;2;279080675;279080675;-91
2022/04/03 19:24:51;;;;;;;;;31.00;15.50;;;;;;;;2;234067316;234067316;-91
2022/04/03 19:33:51;;;;;;;;;12.00;12.00;;;;;;;;2;279083397;279083397;-90
2022/04/03 19:42:08;;;;;;;;;18.50;18.50;;;;;;;;2;234066849;234066849;-89
2022/04/03 19:51:09;;;;;;;;;20.00;15.00;;;;;;;;2;279084176;279084176;-90
2022/04/03 19:59:24;;;;;;;;;15.50;15.50;;;;;;;;2;234071192;234071192;-90
2022/04/03 20:08:25;;;;;;;;;29.00;17.00;;;;;;;;2;279078972;279078972;-90
2022/04/03 20:16:44;;;;;;;;;26.50;15.50;;;;;;;;2;234069834;234069834;-89
2022/04/03 20:25:44;;;;;;;;;13.50;13.50;;;;;;;;2;279083036;279083036;-89
2022/04/03 20:34:00;;;;;;;;;19.00;13.50;;;;;;;;2;234072682;234072682;-88
2022/04/03 20:43:00;;;;;;;;;11.00;11.00;;;;;;;;2;279081047;279081047;-89
2022/04/03 20:51:16;;;;;;;;;16.00;16.00;;;;;;;;2;234067148;234067148;-89
2022/04/03 21:00:17;;;;;;;;;16.50;16.50;;;;;;;;2;279082283;279082283;-89
2022/04/03 21:08:33;;;;;;;;;20.00;20.00;;;;;;;;2;234067635;234067635;-89
2022/04/03 21:17:33;;;;;;;;;10.00;10.00;;;;;;;;2;279082239;279082239;-88
2022/04/03 21:25:49;;;;;;;;;27.00;10.00;;;;;;;;2;234067314;234067314;-86
2022/04/03 21:34:51;;;;;;;;;12.50;12.50;;;;;;;;2;279079816;279079816;-84
2022/04/03 21:43:06;;;;;;;;;8.50;8.50;;;;;;;;2;234069116;234069116;-86
2022/04/03 21:52:07;;;;;;;;;17.00;13.00;;;;;;;;2;279082068;279082068;-87
2022/04/03 22:00:39;;;;;;;;;20.00;8.50;;;;;;;;2;234072479;234072479;-87
2022/04/03 22:09:40;;;;;;;;;13.00;13.00;;;;;;;;2;279080296;279080296;-88
2022/04/03 22:17:55;;;;;;;;;14.50;14.50;;;;;;;;2;234069623;234069623;-86
2022/04/03 22:26:55;;;;;;;;;18.00;10.00;;;;;;;;2;279083258;279083258;-87
2022/04/03 22:35:11;;;;;;;;;10.50;10.50;;;;;;;;2;234074882;234074882;-87
2022/04/03 22:44:11;;;;;;;;;10.00;10.00;;;;;;;;2;279083552;279083552;-87
2022/04/03 22:52:27;;;;;;;;;7.00;7.00;;;;;;;;2;234070068;234070068;-89
2022/04/03 23:01:29;;;;;;;;;5.50;5.50;;;;;;;;2;279082654;279082654;-87
2022/04/03 23:09:45;;;;;;;;;4.00;4.00;;;;;;;;2;234073267;234073267;-87
2022/04/03 23:18:45;;;;;;;;;4.50;4.50;;;;;;;;2;279081977;279081977;-86
2022/04/03 23:27:00;;;;;;;;;6.00;6.00;;;;;;;;2;234072263;234072263;-85
2022/04/03 23:36:01;;;;;;;;;5.50;5.50;;;;;;;;2;279082443;279082443;-85
2022/04/03 23:44:16;;;;;;;;;6.00;6.00;;;;;;;;2;234069606;234069606;-84
2022/04/03 23:53:17;;;;;;;;;10.50;10.50;;;;;;;;2;279082728;279082728;-86
